createdAt,value
2022-12-16T00:00:35.123Z,20.10
2022-12-16T00:03:08.839Z,20.20
2022-12-16T00:05:43.000Z,20.20
2022-12-16T00:08:11.726Z,20.20
2022-12-16T00:10:54.937Z,20.20
2022-12-16T00:13:27.312Z,20.20
2022-12-16T00:15:58.018Z,20.30
2022-12-16T00:18:29.178Z,20.30
2022-12-16T00:20:59.991Z,20.30
2022-12-16T00:23:38.984Z,20.30
2022-12-16T00:26:10.353Z,20.40
2022-12-16T00:28:42.206Z,20.40
2022-12-16T00:31:13.149Z,20.40
2022-12-16T00:33:43.989Z,20.40
2022-12-16T00:36:14.794Z,20.40
2022-12-16T00:38:45.464Z,20.40
2022-12-16T00:41:16.150Z,20.50
2022-12-16T00:43:47.755Z,20.50
2022-12-16T00:46:22.143Z,20.60
2022-12-16T00:48:53.012Z,20.70
2022-12-16T00:51:27.969Z,20.80
2022-12-16T00:53:59.067Z,20.90
2022-12-16T00:56:29.729Z,21.00
2022-12-16T00:59:00.393Z,21.10
2022-12-16T01:01:31.396Z,21.20
2022-12-16T01:04:02.158Z,21.20
2022-12-16T01:06:33.796Z,21.30
2022-12-16T01:09:04.463Z,21.40
2022-12-16T01:11:35.232Z,21.30
2022-12-16T01:14:06.120Z,21.40
2022-12-16T01:16:36.782Z,21.50
2022-12-16T01:19:07.529Z,21.50
2022-12-16T01:21:38.349Z,21.60
2022-12-16T01:24:09.447Z,21.60
2022-12-16T01:26:40.616Z,21.70
2022-12-16T01:29:11.400Z,21.80
2022-12-16T01:31:42.113Z,21.80
2022-12-16T01:34:12.926Z,21.90
2022-12-16T01:36:43.596Z,21.90
2022-12-16T01:39:14.675Z,22.00
2022-12-16T01:41:45.348Z,22.00
2022-12-16T01:44:21.350Z,22.10
2022-12-16T01:47:00.869Z,22.10
2022-12-16T01:49:49.024Z,22.20
2022-12-16T01:52:22.353Z,22.30
2022-12-16T01:54:55.652Z,22.30
2022-12-16T01:57:28.905Z,22.40
2022-12-16T02:00:00.177Z,22.40
2022-12-16T02:02:31.057Z,22.50
2022-12-16T02:05:19.598Z,22.50
2022-12-16T02:07:58.654Z,22.60
2022-12-16T02:10:43.834Z,22.60
2022-12-16T02:13:36.691Z,22.70
2022-12-16T02:16:21.970Z,22.70
2022-12-16T02:19:19.487Z,22.70
2022-12-16T02:22:10.930Z,22.80
2022-12-16T02:24:56.044Z,22.90
2022-12-16T02:27:44.999Z,22.90
2022-12-16T02:30:34.945Z,23.00
2022-12-16T02:33:20.598Z,23.00
2022-12-16T02:36:15.076Z,23.10
2022-12-16T02:39:00.672Z,23.10
2022-12-16T02:41:36.893Z,23.20
2022-12-16T02:44:12.918Z,23.20
2022-12-16T02:46:46.253Z,23.20
2022-12-16T02:49:19.502Z,23.30
2022-12-16T02:51:51.256Z,23.30
2022-12-16T02:54:23.504Z,23.40
2022-12-16T02:57:19.405Z,23.40
2022-12-16T02:59:55.686Z,23.40
2022-12-16T03:02:31.054Z,23.50
2022-12-16T03:05:11.836Z,23.60
2022-12-16T03:07:44.824Z,23.70
2022-12-16T03:10:19.121Z,23.70
2022-12-16T03:12:50.345Z,23.80
2022-12-16T03:15:23.969Z,23.80
2022-12-16T03:17:57.599Z,23.90
2022-12-16T03:20:40.427Z,24.00
2022-12-16T03:23:13.671Z,24.10
2022-12-16T03:25:46.305Z,24.10
2022-12-16T03:28:37.702Z,24.20
2022-12-16T03:31:28.872Z,24.30
2022-12-16T03:34:08.354Z,24.40
2022-12-16T03:36:41.835Z,24.50
2022-12-16T03:39:14.396Z,24.70
2022-12-16T03:41:47.830Z,24.80
2022-12-16T03:44:19.791Z,24.80
2022-12-16T03:46:51.435Z,24.90
2022-12-16T03:49:23.824Z,25.00
2022-12-16T03:51:56.421Z,25.10
2022-12-16T03:54:27.175Z,25.20
2022-12-16T03:56:58.145Z,25.30
2022-12-16T03:59:28.993Z,25.40
2022-12-16T04:02:01.181Z,25.40
2022-12-16T04:04:32.019Z,25.50
2022-12-16T04:07:20.738Z,25.60
2022-12-16T04:09:52.537Z,25.70
2022-12-16T04:12:40.591Z,25.80
2022-12-16T04:15:22.420Z,25.90
2022-12-16T04:18:11.176Z,26.00
2022-12-16T04:21:01.635Z,26.10
2022-12-16T04:23:53.644Z,26.20
2022-12-16T04:26:25.186Z,26.30
2022-12-16T04:28:56.369Z,26.40
2022-12-16T04:31:27.670Z,26.40
2022-12-16T04:34:16.457Z,26.40
2022-12-16T04:37:05.587Z,26.50
2022-12-16T04:39:54.472Z,26.60
2022-12-16T04:42:43.913Z,26.70
2022-12-16T04:45:34.624Z,26.80
2022-12-16T04:48:23.567Z,26.90
2022-12-16T04:51:12.231Z,27.00
2022-12-16T04:54:01.489Z,27.00
2022-12-16T04:57:08.884Z,27.10
2022-12-16T04:59:58.970Z,27.20
2022-12-16T05:02:47.798Z,27.20
2022-12-16T05:05:36.525Z,27.20
2022-12-16T05:08:25.289Z,27.30
2022-12-16T05:11:13.807Z,27.40
2022-12-16T05:14:02.743Z,27.40
2022-12-16T05:16:51.825Z,27.50
2022-12-16T05:19:43.957Z,27.60
2022-12-16T05:22:32.917Z,27.70
2022-12-16T05:25:21.057Z,27.80
2022-12-16T05:28:13.643Z,27.80
2022-12-16T05:31:02.083Z,27.90
2022-12-16T05:33:50.710Z,28.00
2022-12-16T05:36:39.201Z,28.10
2022-12-16T05:39:28.076Z,28.20
2022-12-16T05:42:18.164Z,28.30
2022-12-16T05:45:06.304Z,28.30
2022-12-16T05:47:54.898Z,28.30
2022-12-16T05:50:43.038Z,28.30
2022-12-16T05:53:31.726Z,28.30
2022-12-16T05:56:20.643Z,28.40
2022-12-16T05:59:09.312Z,28.40
2022-12-16T06:01:57.874Z,28.50
2022-12-16T06:04:46.537Z,28.50
2022-12-16T06:07:35.277Z,28.50
2022-12-16T06:10:27.744Z,28.60
2022-12-16T06:13:16.459Z,28.60
2022-12-16T06:16:08.988Z,28.60
2022-12-16T06:18:55.830Z,28.60
2022-12-16T06:21:44.896Z,28.60
2022-12-16T06:24:34.163Z,28.60
2022-12-16T06:27:22.510Z,28.70
2022-12-16T06:30:11.266Z,28.70
2022-12-16T06:32:59.277Z,28.70
2022-12-16T06:35:47.420Z,28.70
2022-12-16T06:38:38.452Z,28.70
2022-12-16T06:41:27.630Z,28.80
2022-12-16T06:44:16.168Z,28.80
2022-12-16T06:47:03.945Z,28.90
2022-12-16T06:49:52.522Z,28.90
2022-12-16T06:52:40.913Z,28.90
2022-12-16T06:55:29.798Z,28.90
2022-12-16T06:58:19.230Z,28.90
2022-12-16T07:01:08.222Z,29.10
2022-12-16T07:03:57.776Z,29.00
2022-12-16T07:06:46.264Z,28.90
2022-12-16T07:09:35.196Z,28.90
2022-12-16T07:12:24.562Z,29.00
2022-12-16T07:15:13.875Z,29.00
2022-12-16T07:18:06.119Z,29.00
2022-12-16T07:20:55.007Z,29.00
2022-12-16T07:23:43.736Z,29.10
2022-12-16T07:26:33.777Z,29.10
2022-12-16T07:29:22.108Z,29.10
2022-12-16T07:32:11.618Z,29.10
2022-12-16T07:34:59.599Z,29.20
2022-12-16T07:37:48.233Z,29.20
2022-12-16T07:40:38.171Z,29.30
2022-12-16T07:43:28.259Z,29.30
2022-12-16T07:46:15.346Z,29.20
2022-12-16T07:49:05.594Z,29.20
2022-12-16T07:51:59.348Z,29.20
2022-12-16T07:54:48.102Z,29.20
2022-12-16T07:57:26.316Z,29.10
2022-12-16T08:00:17.213Z,29.10
2022-12-16T08:03:05.847Z,29.00
2022-12-16T08:05:54.423Z,29.00
2022-12-16T08:08:44.100Z,29.00
2022-12-16T08:11:33.320Z,29.00
2022-12-16T08:14:21.894Z,29.00
2022-12-16T08:17:10.126Z,29.00
2022-12-16T08:19:59.131Z,29.00
2022-12-16T08:22:47.886Z,29.00
2022-12-16T08:25:19.979Z,28.90
2022-12-16T08:28:10.481Z,28.90
2022-12-16T08:30:44.899Z,28.80
2022-12-16T08:33:33.300Z,28.80
2022-12-16T08:36:22.893Z,28.80
2022-12-16T08:39:13.188Z,28.80
2022-12-16T08:42:02.254Z,28.80
2022-12-16T08:44:50.509Z,28.80
2022-12-16T08:47:39.072Z,28.80
2022-12-16T08:50:28.114Z,28.80
2022-12-16T08:53:17.381Z,28.80
2022-12-16T08:56:06.450Z,28.70
2022-12-16T08:58:54.999Z,28.80
2022-12-16T09:01:44.422Z,28.70
2022-12-16T09:04:36.102Z,28.70
2022-12-16T09:07:25.053Z,28.70
2022-12-16T09:10:14.124Z,28.70
2022-12-16T09:13:03.084Z,28.70
2022-12-16T09:15:51.893Z,28.70
2022-12-16T09:18:43.831Z,28.70
2022-12-16T09:21:33.457Z,28.70
2022-12-16T09:24:21.798Z,28.70
2022-12-16T09:27:10.550Z,28.60
2022-12-16T09:29:59.801Z,28.60
2022-12-16T09:32:48.563Z,28.50
2022-12-16T09:35:37.948Z,28.50
2022-12-16T09:38:26.908Z,28.40
2022-12-16T09:41:15.354Z,28.40
2022-12-16T09:44:27.461Z,28.40
2022-12-16T09:47:33.205Z,28.40
2022-12-16T09:50:21.974Z,28.30
2022-12-16T09:53:22.407Z,28.30
2022-12-16T09:56:12.380Z,28.20
2022-12-16T09:59:03.616Z,28.20
2022-12-16T10:01:54.746Z,28.10
2022-12-16T10:04:45.801Z,28.10
2022-12-16T10:07:39.912Z,28.00
2022-12-16T10:10:48.941Z,28.00
2022-12-16T10:13:48.465Z,27.90
2022-12-16T10:16:58.752Z,27.90
2022-12-16T10:20:10.260Z,27.80
2022-12-16T10:23:17.587Z,27.80
2022-12-16T10:26:20.369Z,27.70
2022-12-16T10:29:10.769Z,27.70
2022-12-16T10:32:01.871Z,27.60
2022-12-16T10:35:00.455Z,27.60
2022-12-16T10:38:00.188Z,27.60
2022-12-16T10:40:50.826Z,27.50
2022-12-16T10:43:47.680Z,27.50
2022-12-16T10:46:40.356Z,27.40
2022-12-16T10:49:32.018Z,27.40
2022-12-16T10:52:21.178Z,27.30
2022-12-16T10:55:23.225Z,27.30
2022-12-16T10:58:22.871Z,27.30
2022-12-16T11:01:13.043Z,27.20
2022-12-16T11:04:01.965Z,27.10
2022-12-16T11:07:01.369Z,27.10
2022-12-16T11:09:52.079Z,27.10
2022-12-16T11:12:49.884Z,27.00
2022-12-16T11:15:49.955Z,26.90
2022-12-16T11:18:41.927Z,26.90
2022-12-16T11:21:39.364Z,26.90
2022-12-16T11:24:36.141Z,27.00
2022-12-16T11:27:39.134Z,27.00
2022-12-16T11:30:39.343Z,27.00
2022-12-16T11:33:36.029Z,27.00
2022-12-16T11:36:30.278Z,26.90
2022-12-16T11:39:19.318Z,26.90
2022-12-16T11:42:10.569Z,26.80
2022-12-16T11:45:03.672Z,26.80
2022-12-16T11:48:10.755Z,26.80
2022-12-16T11:51:02.237Z,26.70
2022-12-16T11:53:56.150Z,26.70
2022-12-16T11:56:47.891Z,26.60
2022-12-16T11:59:44.264Z,26.60
2022-12-16T12:02:32.612Z,26.60
2022-12-16T12:05:21.333Z,26.50
2022-12-16T12:08:10.533Z,26.60
2022-12-16T12:11:15.845Z,26.50
2022-12-16T12:14:09.322Z,26.50
2022-12-16T12:17:11.621Z,26.50
2022-12-16T12:20:21.074Z,26.50
2022-12-16T12:23:10.146Z,26.40
2022-12-16T12:26:25.412Z,26.40
2022-12-16T12:29:45.986Z,26.30
2022-12-16T12:32:58.118Z,26.30
2022-12-16T12:36:16.065Z,26.30
2022-12-16T12:39:22.321Z,26.30
2022-12-16T12:42:31.185Z,26.30
2022-12-16T12:45:36.831Z,26.20
2022-12-16T12:48:28.468Z,26.20
2022-12-16T12:51:41.973Z,26.20
2022-12-16T12:54:52.591Z,26.20
2022-12-16T12:57:43.136Z,26.20
2022-12-16T13:00:36.990Z,26.10
2022-12-16T13:03:35.098Z,26.10
2022-12-16T13:06:25.322Z,26.10
2022-12-16T13:09:17.195Z,26.00
2022-12-16T13:12:28.064Z,26.00
2022-12-16T13:15:31.244Z,26.00
2022-12-16T13:18:25.526Z,25.90
2022-12-16T13:21:18.753Z,25.90
2022-12-16T13:24:08.869Z,25.90
2022-12-16T13:27:00.432Z,25.90
2022-12-16T13:30:01.299Z,25.90
2022-12-16T13:32:51.152Z,25.80
2022-12-16T13:35:39.462Z,25.80
2022-12-16T13:38:39.645Z,25.80
2022-12-16T13:41:48.611Z,25.80
2022-12-16T13:45:07.882Z,25.70
2022-12-16T13:48:06.530Z,25.70
2022-12-16T13:51:04.191Z,25.70
2022-12-16T13:53:55.203Z,25.70
2022-12-16T13:56:46.008Z,25.60
2022-12-16T13:59:44.106Z,25.70
2022-12-16T14:02:41.432Z,25.60
2022-12-16T14:05:38.796Z,25.60
2022-12-16T14:08:28.857Z,25.60
2022-12-16T14:11:20.402Z,25.60
2022-12-16T14:14:17.049Z,25.60
2022-12-16T14:17:16.875Z,25.50
2022-12-16T14:20:25.309Z,25.50
2022-12-16T14:23:54.806Z,25.50
2022-12-16T14:26:20.513Z,25.50
2022-12-16T14:29:09.070Z,25.50
2022-12-16T14:32:03.074Z,25.50
2022-12-16T14:34:54.666Z,25.50
2022-12-16T14:37:55.923Z,25.40
2022-12-16T14:40:52.083Z,25.50
2022-12-16T14:43:47.255Z,25.40
2022-12-16T14:46:49.703Z,25.40
2022-12-16T14:49:46.785Z,25.40
2022-12-16T14:52:53.340Z,25.40
2022-12-16T14:55:49.824Z,25.40
2022-12-16T15:01:58.852Z,25.40
2022-12-16T15:04:48.111Z,25.40
2022-12-16T15:07:44.843Z,25.40
2022-12-16T15:10:41.006Z,25.40
2022-12-16T15:13:34.085Z,25.40
2022-12-16T15:16:25.986Z,25.40
2022-12-16T15:19:16.634Z,25.40
2022-12-16T15:22:05.849Z,25.30
2022-12-16T15:24:56.550Z,25.30
2022-12-16T15:27:49.862Z,25.30
2022-12-16T15:31:00.724Z,25.30
2022-12-16T15:33:59.360Z,25.30
2022-12-16T15:36:51.750Z,25.30
2022-12-16T15:39:45.021Z,25.30
2022-12-16T15:42:48.102Z,25.30
2022-12-16T15:45:38.857Z,25.30
2022-12-16T15:48:41.383Z,25.20
2022-12-16T15:51:52.954Z,25.30
2022-12-16T15:54:43.614Z,25.20
2022-12-16T15:57:52.859Z,25.20
2022-12-16T16:00:49.942Z,25.10
2022-12-16T16:03:46.437Z,25.10
2022-12-16T16:06:42.516Z,25.10
2022-12-16T16:09:35.928Z,25.10
2022-12-16T16:12:26.918Z,25.00
2022-12-16T16:15:16.515Z,25.00
2022-12-16T16:18:06.098Z,25.00
2022-12-16T16:20:54.190Z,25.00
2022-12-16T16:23:44.635Z,25.00
2022-12-16T16:26:37.503Z,24.90
2022-12-16T16:29:49.220Z,24.90
2022-12-16T16:32:37.876Z,24.80
2022-12-16T16:35:26.369Z,24.80
2022-12-16T16:38:27.231Z,24.80
2022-12-16T16:41:16.704Z,24.80
2022-12-16T16:44:05.483Z,24.70
2022-12-16T16:47:01.171Z,24.60
2022-12-16T16:50:00.712Z,24.50
2022-12-16T16:52:49.058Z,24.50
2022-12-16T16:55:42.505Z,24.50
2022-12-16T16:58:41.270Z,24.40
2022-12-16T17:01:41.340Z,24.40
2022-12-16T17:04:30.614Z,24.30
2022-12-16T17:07:18.997Z,24.30
2022-12-16T17:10:07.246Z,24.20
2022-12-16T17:12:59.947Z,24.20
2022-12-16T17:15:51.945Z,24.20
2022-12-16T17:18:45.708Z,24.20
2022-12-16T17:21:30.572Z,24.10
2022-12-16T17:24:18.742Z,24.10
2022-12-16T17:27:06.945Z,24.10
2022-12-16T17:29:55.964Z,24.00
2022-12-16T17:32:47.191Z,24.00
2022-12-16T17:35:35.699Z,24.00
2022-12-16T17:38:23.719Z,24.00
2022-12-16T17:41:05.132Z,23.90
2022-12-16T17:43:53.125Z,23.90
2022-12-16T17:46:41.273Z,23.90
2022-12-16T17:49:30.542Z,23.80
2022-12-16T17:52:18.566Z,23.80
2022-12-16T17:55:06.910Z,23.70
2022-12-16T17:57:54.956Z,23.70
2022-12-16T18:00:43.148Z,23.70
2022-12-16T18:03:31.755Z,23.70
2022-12-16T18:06:20.611Z,23.60
2022-12-16T18:09:08.850Z,23.60
2022-12-16T18:11:56.902Z,23.60
2022-12-16T18:14:45.053Z,23.50
2022-12-16T18:17:33.014Z,23.50
2022-12-16T18:20:21.409Z,23.50
2022-12-16T18:23:13.743Z,23.40
2022-12-16T18:26:02.315Z,23.40
2022-12-16T18:28:50.406Z,23.40
2022-12-16T18:31:38.768Z,23.40
2022-12-16T18:34:28.696Z,23.40
2022-12-16T18:37:17.753Z,23.40
2022-12-16T18:40:06.930Z,23.30
2022-12-16T18:42:57.167Z,23.40
2022-12-16T18:45:45.668Z,23.40
2022-12-16T18:48:34.096Z,23.30
2022-12-16T18:51:22.429Z,23.30
2022-12-16T18:54:10.901Z,23.30
2022-12-16T18:57:00.873Z,23.30
2022-12-16T18:59:48.721Z,23.30
2022-12-16T19:02:37.188Z,23.30
2022-12-16T19:05:26.085Z,23.30
2022-12-16T19:08:14.607Z,23.20
2022-12-16T19:11:03.749Z,23.20
2022-12-16T19:13:51.936Z,23.20
2022-12-16T19:16:40.033Z,23.20
2022-12-16T19:19:31.388Z,23.20
2022-12-16T19:22:20.390Z,23.20
2022-12-16T19:25:11.738Z,23.20
2022-12-16T19:27:59.765Z,23.10
2022-12-16T19:30:48.123Z,23.10
2022-12-16T19:33:36.686Z,23.10
2022-12-16T19:36:28.065Z,23.10
2022-12-16T19:39:16.132Z,23.10
2022-12-16T19:42:05.899Z,23.10
2022-12-16T19:44:54.041Z,23.00
2022-12-16T19:47:43.122Z,23.10
2022-12-16T19:50:31.389Z,23.10
2022-12-16T19:53:21.790Z,23.10
2022-12-16T19:56:20.384Z,23.00
2022-12-16T19:59:08.474Z,23.10
2022-12-16T20:01:59.707Z,23.00
2022-12-16T20:04:47.879Z,23.00
2022-12-16T20:07:36.353Z,23.00
2022-12-16T20:10:26.361Z,23.00
2022-12-16T20:16:10.525Z,23.00
2022-12-16T20:18:58.601Z,23.00
2022-12-16T20:21:49.054Z,23.00
2022-12-16T20:24:36.909Z,23.00
2022-12-16T20:27:25.028Z,22.90
2022-12-16T20:30:13.167Z,23.00
2022-12-16T20:33:01.468Z,22.90
2022-12-16T20:35:49.694Z,22.90
2022-12-16T20:38:38.003Z,22.90
2022-12-16T20:41:26.163Z,22.90
2022-12-16T20:44:14.311Z,22.90
2022-12-16T20:47:02.655Z,22.90
2022-12-16T20:49:50.842Z,22.90
2022-12-16T20:52:39.567Z,22.90
2022-12-16T20:55:28.523Z,22.90
2022-12-16T20:58:16.720Z,22.90
2022-12-16T21:01:06.449Z,22.90
2022-12-16T21:03:55.043Z,23.00
2022-12-16T21:06:44.872Z,23.00
2022-12-16T21:09:33.098Z,23.00
2022-12-16T21:12:21.475Z,23.00
2022-12-16T21:15:09.758Z,23.00
2022-12-16T21:17:57.750Z,23.00
2022-12-16T21:20:45.964Z,23.00
2022-12-16T21:23:34.050Z,23.00
2022-12-16T21:26:22.653Z,22.90
2022-12-16T21:29:10.969Z,23.00
2022-12-16T21:32:00.923Z,23.00
2022-12-16T21:34:49.314Z,22.90
2022-12-16T21:37:30.274Z,22.90
2022-12-16T21:40:18.408Z,22.90
2022-12-16T21:43:06.460Z,22.90
2022-12-16T21:45:56.192Z,22.90
2022-12-16T21:48:44.958Z,22.90
2022-12-16T21:51:33.046Z,22.90
2022-12-16T21:54:21.353Z,22.90
2022-12-16T21:57:09.715Z,22.90
2022-12-16T21:59:57.856Z,22.90
2022-12-16T22:02:46.061Z,22.90
2022-12-16T22:05:34.380Z,22.90
2022-12-16T22:08:26.668Z,22.90
2022-12-16T22:11:15.313Z,22.90
2022-12-16T22:14:03.491Z,22.90
2022-12-16T22:16:51.869Z,22.90
2022-12-16T22:19:40.082Z,22.90
2022-12-16T22:22:28.822Z,22.90
2022-12-16T22:25:16.641Z,22.90
2022-12-16T22:28:05.318Z,22.90
2022-12-16T22:30:53.448Z,22.90
2022-12-16T22:33:43.189Z,22.80
2022-12-16T22:36:34.748Z,22.90
2022-12-16T22:39:22.905Z,22.90
2022-12-16T22:42:11.125Z,22.80
2022-12-16T22:45:00.506Z,22.80
2022-12-16T22:48:07.711Z,22.80
2022-12-16T22:50:56.326Z,22.80
2022-12-16T22:53:44.950Z,22.80
2022-12-16T22:56:33.377Z,22.80
2022-12-16T22:59:21.615Z,22.80
2022-12-16T23:02:10.007Z,22.70
2022-12-16T23:04:58.377Z,22.80
2022-12-16T23:07:46.522Z,22.80
2022-12-16T23:10:34.937Z,22.80
2022-12-16T23:13:23.317Z,22.90
2022-12-16T23:16:13.351Z,22.80
2022-12-16T23:19:01.703Z,22.80
2022-12-16T23:21:49.719Z,22.90
2022-12-16T23:24:37.847Z,22.90
2022-12-16T23:27:26.009Z,22.90
2022-12-16T23:30:14.484Z,22.90
2022-12-16T23:33:02.565Z,22.90
2022-12-16T23:35:50.519Z,22.90
2022-12-16T23:38:38.592Z,22.80
2022-12-16T23:41:26.580Z,22.90
2022-12-16T23:44:14.537Z,22.80
2022-12-16T23:47:02.821Z,22.80
2022-12-16T23:49:51.982Z,22.80
2022-12-16T23:52:40.431Z,22.80
2022-12-16T23:55:29.130Z,22.80
2022-12-16T23:58:22.332Z,22.80
